Latest Weather Observations for Rhyll

IDV60901

Issued at 9:41 am EDT Thursday 30 March 2017 (issued every 10 minutes, with the page automatically refreshed every 10 minutes)

About weather observations | Map of Melbourne area stations | Latest observations for Melbourne area | Other Formats
Station Details ID: 086373 Name: RHYLL Lat: -38.46 Lon: 145.31 Height: 13.4 m
Data from the previous 72 hours. | See also: Recent months at Rhyll
Date/Time
EDT
Temp
°C
App
Temp
°C
Dew
Point
°C
Rel
Hum
%
Delta-T
°C
Wind Press
QNH
hPa
Press
MSL
hPa
Rain since
9am
mm
Dir  Spd
km/h
Gust
km/h
Spd
kts
Gust
kts
30/09:30am 12.2 9.7 9.6 84 1.3 W 13 28 7 15 1016.3 1016.3 1.2
30/09:00am 12.3 9.9 8.8 79 1.7 W 11 20 6 11 1015.8 1015.8 15.0
30/08:30am 12.1 10.7 9.5 84 1.3 W 7 13 4 7 1015.1 1015.1 15.0
30/08:00am 11.6 10.1 9.0 84 1.3 W 7 17 4 9 1015.0 1015.0 15.0
30/07:30am 11.7 10.2 9.1 84 1.3 WNW 7 11 4 6 1014.4 1014.4 14.6
30/07:00am 12.2 10.3 8.9 80 1.6 WNW 9 15 5 8 1014.2 1014.2 14.4
30/06:30am 11.5 9.2 7.4 76 2.0 W 9 13 5 7 1013.6 1013.6 14.4
30/06:00am 11.6 10.6 8.8 83 1.4 WNW 4 7 2 4 1013.1 1013.0 14.4
30/05:30am 10.9 9.3 8.1 83 1.4 WNW 6 9 3 5 1012.5 1012.4 14.4
30/05:00am 10.7 8.9 8.1 84 1.3 WNW 7 11 4 6 1012.4 1012.3 14.4
30/04:30am 10.5 9.0 8.6 88 0.9 NW 6 9 3 5 1012.7 1012.6 14.4
30/04:00am 10.8 9.2 8.6 86 1.1 WSW 7 24 4 13 1013.0 1012.9 10.2
30/03:30am 12.0 10.9 10.1 88 1.0 SW 6 11 3 6 1012.7 1012.6 6.8
30/03:00am 12.0 9.9 9.6 85 1.2 NW 11 22 6 12 1012.2 1012.1 6.6
30/02:30am 11.4 9.8 8.8 84 1.3 W 7 15 4 8 1012.6 1012.5 6.4
30/02:00am 11.7 9.0 7.4 75 2.1 NW 11 20 6 11 1011.8 1011.7 5.8
30/01:30am 11.7 9.1 9.3 85 1.2 NNW 13 24 7 13 1011.9 1011.8 5.6
30/01:00am 11.5 10.7 9.6 88 1.0 NW 4 13 2 7 1012.0 1011.9 4.8
30/12:30am 11.2 10.7 9.3 88 1.0 WNW 2 4 1 2 1011.9 1011.8 4.4
30/12:00am 11.4 10.1 9.3 87 1.1 WSW 6 9 3 5 1012.1 1012.0 3.8
 
Date/Time
EDT
Temp
°C
App
Temp
°C
Dew
Point
°C
Rel
Hum
%
Delta-T
°C
Wind Press
QNH
hPa
Press
MSL
hPa
Rain since
9am
mm
Dir  Spd
km/h
Gust
km/h
Spd
kts
Gust
kts
29/11:30pm 11.7 10.4 9.8 88 1.0 WSW 7 19 4 10 1011.7 1011.6 3.4
29/11:00pm 11.7 9.3 9.9 89 0.9 SW 13 19 7 10 1011.5 1011.4 2.6
29/10:30pm 11.7 8.3 9.3 85 1.2 WSW 17 28 9 15 1011.6 1011.5 1.4
29/10:00pm 12.7 9.2 10.2 85 1.3 SW 19 32 10 17 1011.2 1011.1 0.6
29/09:30pm 13.9 10.6 10.9 82 1.6 SSW 19 28 10 15 1010.3 1010.2 0.0
29/09:00pm 14.8 11.1 10.0 73 2.5 SW 20 35 11 19 1009.6 1009.5 0.0
29/08:30pm 14.4 9.5 10.0 75 2.3 SW 26 43 14 23 1008.7 1008.6 0.0
29/08:00pm 14.8 9.3 10.6 76 2.2 SW 30 61 16 33 1007.9 1007.8 0.0
29/07:30pm 15.2 9.2 10.8 75 2.3 SW 33 54 18 29 1007.2 1007.1 0.0
29/07:00pm 15.8 10.2 12.0 78 2.1 SW 33 65 18 35 1006.3 1006.2 0.0
29/06:33pm 20.5 17.3 11.4 56 5.0 W 19 65 10 35 1005.0 1004.9 0.0
29/06:30pm 23.0 20.7 10.4 45 6.9 W 13 24 7 13 1004.6 1004.5 0.0
29/06:00pm 23.2 20.6 10.6 45 7.0 W 15 26 8 14 1004.1 1004.0 0.0
29/05:30pm 23.9 21.6 10.6 43 7.4 W 13 24 7 13 1004.0 1003.9 0.0
29/05:00pm 23.9 21.9 11.6 46 7.0 W 13 24 7 13 1004.0 1003.9 0.0
29/04:30pm 24.7 23.0 12.3 46 7.1 WNW 13 24 7 13 1003.9 1003.8 0.0
29/04:00pm 24.0 22.2 12.0 47 6.8 WNW 13 24 7 13 1003.9 1003.8 0.0
29/03:30pm 23.7 22.1 11.7 47 6.8 WNW 11 20 6 11 1004.0 1003.9 0.0
29/03:00pm 24.0 23.3 13.2 50 6.3 WNW 9 19 5 10 1004.5 1004.4 0.0
29/02:30pm 23.2 22.3 12.5 51 6.1 WNW 9 20 5 11 1004.8 1004.7 0.0
29/02:00pm 23.3 21.6 12.3 50 6.3 NW 13 28 7 15 1005.4 1005.3 0.0
29/01:30pm 23.4 20.0 12.4 50 6.3 NNW 22 33 12 18 1005.7 1005.6 0.0
29/01:00pm 23.7 20.5 11.4 46 6.9 NW 19 32 10 17 1006.2 1006.1 0.0
29/12:30pm 23.2 19.9 11.6 48 6.5 NW 20 35 11 19 1006.5 1006.4 0.0
29/12:00pm 22.8 19.3 12.1 51 6.1 NNW 22 35 12 19 1006.9 1006.8 0.0
29/11:30am 22.1 17.7 12.9 56 5.3 NNW 28 33 15 18 1007.2 1007.1 0.0
29/11:00am 20.6 16.1 12.6 60 4.5 NNW 28 35 15 19 1007.7 1007.6 0.0
29/10:30am 19.3 16.2 13.5 69 3.3 NNW 22 30 12 16 1008.0 1007.9 0.0
29/10:00am 18.9 17.2 12.6 67 3.5 NNW 13 22 7 12 1008.3 1008.2 0.0
29/09:30am 18.7 17.4 13.6 72 2.9 NNW 13 19 7 10 1008.5 1008.4 0.0
29/09:00am 17.8 16.4 13.3 75 2.5 NNW 13 19 7 10 1008.6 1008.5 0.0
29/08:30am 17.4 15.5 14.3 82 1.8 NNW 17 22 9 12 1008.7 1008.6 0.0
29/08:00am 16.7 16.1 14.5 87 1.3 NNW 11 19 6 10 1008.9 1008.8 0.0
29/07:30am 16.5 16.6 14.5 88 1.1 NNW 7 15 4 8 1008.9 1008.8 0.0
29/07:00am 16.4 16.6 14.1 86 1.3 NW 6 13 3 7 1009.0 1008.9 0.0
29/06:30am 16.3 15.7 13.6 84 1.5 NNW 9 13 5 7 1008.8 1008.7 0.0
29/06:00am 16.2 14.9 12.6 79 2.0 N 11 15 6 8 1008.6 1008.5 0.0
29/05:30am 16.3 15.4 12.7 79 2.0 N 9 13 5 7 1008.5 1008.4 0.0
29/05:00am 15.9 15.1 12.8 82 1.7 NNW 9 13 5 7 1008.8 1008.7 0.0
29/04:30am 16.0 15.1 12.7 81 1.8 NNW 9 13 5 7 1008.9 1008.8 0.0
29/04:00am 15.7 15.3 12.5 81 1.8 N 6 9 3 5 1009.1 1009.0 0.0
29/03:30am 15.8 15.6 11.8 77 2.2 NNE 4 7 2 4 1009.5 1009.4 0.0
29/03:00am 15.9 15.8 12.1 78 2.1 NNE 4 7 2 4 1009.9 1009.8 0.0
29/02:30am 15.7 16.2 11.7 77 2.2 CALM 0 2 0 1 1010.0 1009.9 0.0
29/02:00am 15.3 15.0 11.3 77 2.1 ENE 4 7 2 4 1010.4 1010.3 0.0
29/01:30am 15.3 13.6 11.1 76 2.2 E 11 15 6 8 1010.5 1010.4 0.0
29/01:00am 16.1 14.7 12.3 78 2.1 ESE 11 15 6 8 1010.7 1010.6 0.0
29/12:30am 16.3 15.1 12.7 79 2.0 ESE 11 13 6 7 1011.0 1010.9 0.0
29/12:00am 16.3 15.0 12.5 78 2.1 ESE 11 13 6 7 1011.2 1011.1 0.0
 
Date/Time
EDT
Temp
°C
App
Temp
°C
Dew
Point
°C
Rel
Hum
%
Delta-T
°C
Wind Press
QNH
hPa
Press
MSL
hPa
Rain since
9am
mm
Dir  Spd
km/h
Gust
km/h
Spd
kts
Gust
kts
28/11:30pm 16.5 14.8 12.5 77 2.2 E 13 17 7 9 1011.7 1011.6 0.0
28/11:00pm 16.6 14.8 12.2 75 2.4 ESE 13 17 7 9 1012.0 1011.9 0.0
28/10:30pm 16.8 14.7 12.3 75 2.5 ESE 15 19 8 10 1012.0 1011.9 0.0
28/10:00pm 16.8 15.8 12.3 75 2.5 SE 9 11 5 6 1012.3 1012.2 0.0
28/09:30pm 16.9 16.3 12.4 75 2.5 SE 7 11 4 6 1012.3 1012.2 0.0
28/09:00pm 16.7 15.6 12.0 74 2.6 SSE 9 13 5 7 1012.2 1012.1 0.0
28/08:30pm 16.5 15.8 12.1 75 2.4 SSE 7 13 4 7 1012.0 1011.9 0.0
28/08:00pm 16.5 15.8 11.9 74 2.5 SSE 7 13 4 7 1011.9 1011.8 0.0
28/07:30pm 17.1 15.5 11.4 69 3.1 S 11 19 6 10 1011.7 1011.6 0.0
28/07:00pm 17.7 16.5 11.7 68 3.3 S 9 17 5 9 1011.7 1011.6 0.0
28/06:30pm 19.0 17.9 11.8 63 4.0 S 9 15 5 8 1011.7 1011.6 0.0
28/06:00pm 20.6 20.1 12.1 58 4.8 S 6 22 3 12 1011.6 1011.5 0.0
28/05:30pm 21.0 20.9 12.2 57 4.9 ENE 4 6 2 3 1011.4 1011.3 0.0
28/05:00pm 20.7 20.2 10.8 53 5.4 N 4 6 2 3 1011.6 1011.5 0.0
28/04:30pm 21.2 20.7 10.7 51 5.7 N 4 6 2 3 1011.8 1011.7 0.0
28/04:00pm 20.8 20.2 10.3 51 5.7 N 4 6 2 3 1012.2 1012.1 0.0
28/03:30pm 20.4 19.4 10.2 52 5.5 N 6 9 3 5 1012.2 1012.1 0.0
28/03:00pm 21.4 20.4 10.9 51 5.8 NW 7 13 4 7 1012.4 1012.3 0.0
28/02:30pm 21.2 20.4 11.0 52 5.6 W 6 15 3 8 1012.7 1012.6 0.0
28/02:00pm 20.1 18.7 9.7 51 5.6 WNW 7 15 4 8 1012.9 1012.8 0.0
28/01:30pm 20.4 18.9 10.5 53 5.4 W 9 17 5 9 1013.3 1013.2 0.0
28/01:00pm 19.9 18.2 9.8 52 5.4 WNW 9 15 5 8 1013.7 1013.7 0.0
28/12:30pm 19.5 17.7 10.8 57 4.7 W 11 19 6 10 1014.1 1014.1 0.0
28/12:00pm 19.2 17.8 11.0 59 4.5 NW 9 17 5 9 1014.4 1014.4 0.0
28/11:30am 19.0 18.2 11.6 62 4.1 WNW 7 19 4 10 1014.4 1014.4 0.0
28/11:00am 18.4 17.2 11.5 64 3.8 WNW 9 20 5 11 1014.6 1014.6 0.0
28/10:30am 18.1 16.8 11.4 65 3.7 NW 9 24 5 13 1014.6 1014.6 0.0
28/10:00am 18.1 17.4 12.1 68 3.3 WNW 7 15 4 8 1014.4 1014.4 0.0
28/09:30am 17.2 16.0 11.7 70 3.0 WNW 9 17 5 9 1014.2 1014.2 0.0
28/09:00am 16.6 16.3 11.5 72 2.8 WNW 4 11 2 6 1014.1 1014.1 3.0
28/08:30am 15.8 14.5 11.2 74 2.5 W 9 20 5 11 1013.9 1013.9 3.0
28/08:00am 15.2 13.8 11.0 76 2.2 W 9 17 5 9 1013.9 1013.9 3.0
28/07:30am 15.1 13.3 10.9 76 2.2 W 11 19 6 10 1013.6 1013.6 3.0
28/07:00am 15.1 13.3 10.9 76 2.2 W 11 19 6 10 1013.5 1013.5 3.0
28/06:30am 15.3 13.6 11.1 76 2.2 W 11 28 6 15 1013.4 1013.4 3.0
28/06:00am 15.4 13.7 11.2 76 2.2 W 11 17 6 9 1013.3 1013.2 3.0
28/05:30am 15.6 14.7 11.2 75 2.4 W 7 15 4 8 1013.0 1012.9 3.0
28/05:00am 15.6 14.7 11.2 75 2.4 WNW 7 13 4 7 1012.9 1012.8 3.0
28/04:30am 15.5 15.1 11.1 75 2.3 WNW 4 9 2 5 1012.8 1012.7 3.0
28/04:00am 15.6 15.2 11.0 74 2.5 W 4 7 2 4 1012.8 1012.7 3.0
28/03:30am 15.8 14.8 11.0 73 2.6 WNW 7 13 4 7 1012.9 1012.8 3.0
28/03:00am 15.8 15.0 11.0 73 2.6 WNW 6 13 3 7 1013.0 1012.9 3.0
28/02:30am 15.5 15.1 11.1 75 2.3 WNW 4 9 2 5 1012.8 1012.7 3.0
28/02:00am 15.7 15.2 10.7 72 2.7 WNW 4 7 2 4 1013.0 1012.9 3.0
28/01:30am 15.7 15.3 11.1 74 2.5 W 4 9 2 5 1013.0 1012.9 3.0
28/01:00am 16.2 14.7 10.7 70 2.9 W 9 19 5 10 1012.9 1012.8 3.0
28/12:30am 16.0 14.9 10.7 71 2.8 W 7 13 4 7 1013.0 1012.9 3.0
28/12:00am 15.8 14.7 10.6 71 2.8 W 7 11 4 6 1013.1 1013.0 3.0
 
Date/Time
EDT
Temp
°C
App
Temp
°C
Dew
Point
°C
Rel
Hum
%
Delta-T
°C
Wind Press
QNH
hPa
Press
MSL
hPa
Rain since
9am
mm
Dir  Spd
km/h
Gust
km/h
Spd
kts
Gust
kts
27/11:30pm 15.9 15.1 10.9 72 2.7 W 6 9 3 5 1013.2 1013.1 3.0
27/11:00pm 15.7 15.2 10.7 72 2.7 W 4 9 2 5 1013.3 1013.2 3.0
27/10:30pm 16.3 16.0 11.5 73 2.6 WNW 4 11 2 6 1013.3 1013.2 3.0
27/10:00pm 16.3 15.8 11.9 75 2.4 W 6 7 3 4 1012.9 1012.8 3.0
27/09:30pm 16.3 16.0 11.5 73 2.6 WNW 4 6 2 3 1012.7 1012.6 3.0
27/09:00pm 16.5 16.2 11.4 72 2.8 WNW 4 11 2 6 1012.5 1012.4 3.0
27/08:30pm 16.4 16.1 11.6 73 2.6 NW 4 7 2 4 1012.1 1012.0 3.0
27/08:00pm 16.6 16.4 11.7 73 2.7 WNW 4 7 2 4 1011.8 1011.7 3.0
27/07:30pm 16.8 16.6 11.7 72 2.8 NW 4 11 2 6 1011.3 1011.2 3.0
27/07:00pm 17.2 16.4 11.7 70 3.0 WNW 7 15 4 8 1011.4 1011.3 3.0
27/06:30pm 17.9 16.7 11.5 66 3.5 W 9 17 5 9 1011.5 1011.4 3.0
27/06:00pm 17.7 15.7 11.5 67 3.4 W 13 24 7 13 1011.3 1011.2 3.0
27/05:30pm 17.7 17.4 12.6 72 2.8 WNW 6 15 3 8 1010.9 1010.8 3.0
27/05:00pm 15.3 13.9 12.1 81 1.7 WNW 11 24 6 13 1010.8 1010.7 3.0
27/04:30pm 14.5 12.4 12.4 87 1.1 W 15 28 8 15 1010.7 1010.6 2.8
27/04:00pm 15.3 10.8 11.5 78 2.0 WSW 26 44 14 24 1010.5 1010.4 1.6
27/03:30pm 15.8 12.9 12.9 83 1.6 W 20 33 11 18 1008.9 1008.8 0.6
27/03:01pm 18.1 13.9 13.6 75 2.6 WSW 28 48 15 26 1008.5 1008.4 0.0
27/03:00pm 18.1 14.2 13.4 74 2.7 WSW 26 48 14 26 1008.6 1008.5 0.0
27/02:30pm 19.6 15.3 13.1 66 3.7 SW 28 43 15 23 1007.9 1007.8 0.0
27/02:00pm 19.8 15.7 14.8 73 2.9 SW 30 50 16 27 1007.4 1007.3 0.0
27/01:30pm 20.6 16.6 16.6 78 2.4 SW 33 57 18 31 1007.0 1006.9 0.0
27/01:05pm 22.6 18.9 15.0 62 4.5 WNW 28 57 15 31 1005.8 1005.7 0.0
27/01:03pm 27.9 24.7 15.2 46 7.7 NW 26 57 14 31 1005.6 1005.5 0.0
27/01:00pm 29.7 26.5 15.4 42 8.8 NW 26 52 14 28 1004.1 1004.0 0.0
27/12:58pm 30.0 26.3 14.9 39 9.2 NW 28 52 15 28 1003.8 1003.7 0.0
27/12:30pm 28.4 24.5 17.0 50 7.1 NNW 33 48 18 26 1002.6 1002.5 0.0
27/12:00pm 28.5 22.3 16.4 48 7.5 N 44 63 24 34 1001.9 1001.8 0.0
27/11:30am 28.7 20.7 15.6 45 8.0 NNW 52 70 28 38 1002.0 1001.9 0.0
27/11:29am 29.0 20.9 15.5 44 8.3 NNW 52 70 28 38 1002.0 1001.9 0.0
27/11:00am 28.2 21.3 15.5 46 7.8 N 46 57 25 31 1002.4 1002.3 0.0
27/10:39am 27.4 23.3 16.4 51 6.8 N 33 52 18 28 1002.9 1002.8 0.0
27/10:30am 26.6 22.6 16.2 52 6.4 NNW 32 41 17 22 1003.1 1003.0 0.0
27/10:00am 25.8 22.7 16.6 56 5.7 N 28 35 15 19 1003.0 1002.9 0.0

Latest Capital City Observations: Canberra | Sydney | Melbourne | Brisbane | Adelaide | Perth | Hobart | Darwin

Other Formats:

Comma delimited format used in spreadsheet applications
http://www.bom.gov.au/fwo/IDV60901/IDV60901.94892.axf

JavaScript Object Notation format (JSON) in row-major order
http://www.bom.gov.au/fwo/IDV60901/IDV60901.94892.json